Time;durP1;ratioP1;P1;durP2;ratioP2;P2;SDS_P1;SDS_P2;PMS_P1;PMS_P2;Temp;Humidity;BMP_temperature;BMP_pressure;BME280_temperature;BME280_humidity;BME280_pressure;Samples;Min_cycle;Max_cycle;Signal;HPM_P1;HPM_P2
2023/01/18 00:01:04;;;;;;;27.55;8.35;;;;;;;;;;6254189;23;20004;-95
2023/01/18 00:06:46;;;;;;;36.55;9.95;;;;;;;;;;6268990;23;20015;-96
2023/01/18 00:24:00;;;;;;;15.75;6.43;;;;;;;;;;6285209;22;20022;-96
2023/01/18 00:29:09;;;;;;;7.75;4.00;;;;;;;;;;6284029;22;20386;-95
2023/01/18 00:31:36;;;;;;;23.52;6.53;;;;;;;;;;6288115;22;20027;-96
2023/01/18 00:37:22;;;;;;;14.90;5.90;;;;;;;;;;6290835;22;20401;-95
2023/01/18 00:40:40;;;;;;;;;;;;;;;;;;;;;
2023/01/18 01:01:47;;;;;;;21.42;7.43;;;;;;;;;;6286667;22;20031;-95
2023/01/18 01:09:48;;;;;;;90.38;31.42;;;;;;;;;;6315347;22;20023;-95
2023/01/18 01:26:47;;;;;;;;;;;;;;;;;;;;;
2023/01/18 02:14:26;;;;;;;8.45;3.05;;;;;;;;;;6248440;22;20039;-95
2023/01/18 02:17:49;;;;;;;7.00;3.10;;;;;;;;;;6360696;22;20055;-96
2023/01/18 02:41:22;;;;;;;9.02;3.40;;;;;;;;;;6297463;22;20326;-96
2023/01/18 03:05:10;;;;;;;5.38;2.40;;;;;;;;;;6280834;22;20024;-96
2023/01/18 03:07:52;;;;;;;4.82;2.22;;;;;;;;;;6252770;23;20015;-93
2023/01/18 03:10:18;;;;;;;4.75;2.53;;;;;;;;;;6252340;23;20079;-94
2023/01/18 03:12:52;;;;;;;4.50;2.25;;;;;;;;;;6225964;23;20061;-94
2023/01/18 03:15:38;;;;;;;3.22;2.10;;;;;;;;;;6226087;23;20024;-94
2023/01/18 03:18:34;;;;;;;;;;;;;;;;;;;;;
2023/01/18 03:44:51;;;;;;;2.28;0.93;;;;;;;;;;6271140;22;20065;-95
2023/01/18 03:47:20;;;;;;;1.50;0.90;;;;;;;;;;6259007;22;20074;-94
2023/01/18 03:52:52;;;;;;;2.35;1.08;;;;;;;;;;6282489;22;20432;-95
2023/01/18 03:55:30;;;;;;;2.78;0.85;;;;;;;;;;6258619;22;20000;-96
2023/01/18 03:58:03;;;;;;;2.15;1.17;;;;;;;;;;6284630;22;20011;-95
2023/01/18 04:00:32;;;;;;;2.63;1.17;;;;;;;;;;6283945;22;20244;-95
2023/01/18 04:02:58;;;;;;;2.72;1.20;;;;;;;;;;6283108;22;20007;-95
2023/01/18 04:05:27;;;;;;;2.55;0.93;;;;;;;;;;6283848;22;20362;-95
2023/01/18 04:07:53;;;;;;;2.33;1.05;;;;;;;;;;6283314;22;20007;-95
2023/01/18 04:10:19;;;;;;;2.05;1.10;;;;;;;;;;6255866;22;20354;-95
2023/01/18 04:12:45;;;;;;;4.38;1.65;;;;;;;;;;6282077;22;20330;-95
2023/01/18 04:15:11;;;;;;;3.33;1.30;;;;;;;;;;6282772;22;20029;-95
2023/01/18 04:17:38;;;;;;;4.60;2.05;;;;;;;;;;6256742;22;20003;-95
2023/01/18 04:20:05;;;;;;;4.00;2.05;;;;;;;;;;6283193;22;20026;-95
2023/01/18 04:22:31;;;;;;;5.00;1.77;;;;;;;;;;6285345;22;20051;-95
2023/01/18 04:24:57;;;;;;;3.28;1.42;;;;;;;;;;6294249;22;20082;-95
2023/01/18 04:30:14;;;;;;;5.85;1.80;;;;;;;;;;6228753;23;20001;-95
2023/01/18 04:32:41;;;;;;;4.10;1.95;;;;;;;;;;6228065;23;20011;-95
2023/01/18 04:38:21;;;;;;;3.53;1.53;;;;;;;;;;6225450;23;20372;-94
2023/01/18 04:40:47;;;;;;;3.45;1.70;;;;;;;;;;6218675;22;20015;-95
2023/01/18 04:43:13;;;;;;;7.70;3.33;;;;;;;;;;6197736;22;20013;-94
2023/01/18 04:45:39;;;;;;;4.88;1.90;;;;;;;;;;6250143;23;20008;-94
2023/01/18 04:48:10;;;;;;;5.60;2.25;;;;;;;;;;6251392;22;20331;-94
2023/01/18 04:54:09;;;;;;;3.72;1.90;;;;;;;;;;6254317;23;20255;-95
2023/01/18 04:56:43;;;;;;;6.63;3.28;;;;;;;;;;6253934;23;20005;-95
2023/01/18 04:59:19;;;;;;;3.92;1.73;;;;;;;;;;6229420;23;20004;-95
2023/01/18 05:01:50;;;;;;;6.88;2.88;;;;;;;;;;6255577;23;20015;-95
2023/01/18 05:04:29;;;;;;;3.95;1.70;;;;;;;;;;6248816;23;20075;-95
2023/01/18 05:07:21;;;;;;;6.55;2.85;;;;;;;;;;6231222;23;20418;-95
2023/01/18 05:10:10;;;;;;;3.60;2.00;;;;;;;;;;6219753;23;20040;-95
2023/01/18 05:12:36;;;;;;;2.53;1.42;;;;;;;;;;6222446;23;20472;-95
2023/01/18 05:15:04;;;;;;;3.55;1.60;;;;;;;;;;6199140;23;20005;-95
2023/01/18 05:17:33;;;;;;;3.53;1.63;;;;;;;;;;6201005;23;20174;-96
2023/01/18 05:23:09;;;;;;;4.65;2.55;;;;;;;;;;6223826;23;20110;-95
2023/01/18 05:25:35;;;;;;;4.65;2.40;;;;;;;;;;6193880;23;20100;-95
2023/01/18 05:28:01;;;;;;;2.92;1.60;;;;;;;;;;6219252;23;20028;-96
2023/01/18 05:30:27;;;;;;;2.80;1.25;;;;;;;;;;6219132;23;19996;-95
2023/01/18 05:32:53;;;;;;;1.73;1.00;;;;;;;;;;6194014;22;20054;-94
2023/01/18 05:38:23;;;;;;;2.05;1.20;;;;;;;;;;6219145;23;20237;-95
2023/01/18 05:40:51;;;;;;;6.10;1.80;;;;;;;;;;6218914;23;19996;-95
2023/01/18 05:43:17;;;;;;;4.10;2.28;;;;;;;;;;6218796;23;20004;-95
2023/01/18 05:45:43;;;;;;;3.97;2.60;;;;;;;;;;6196865;23;20092;-94
2023/01/18 05:48:10;;;;;;;3.75;2.08;;;;;;;;;;6247211;22;20035;-95
2023/01/18 05:50:41;;;;;;;2.90;1.70;;;;;;;;;;6255304;22;20011;-95
2023/01/18 05:53:07;;;;;;;2.65;1.80;;;;;;;;;;6255271;22;20362;-95
2023/01/18 05:55:34;;;;;;;105.90;41.05;;;;;;;;;;6255020;22;20250;-95
2023/01/18 05:58:00;;;;;;;82.22;28.23;;;;;;;;;;6281788;22;20078;-94
2023/01/18 06:00:29;;;;;;;53.35;15.65;;;;;;;;;;6283461;22;20003;-95
2023/01/18 06:03:10;;;;;;;13.48;6.57;;;;;;;;;;6260580;22;20024;-95
2023/01/18 06:09:03;;;;;;;9.13;5.00;;;;;;;;;;6284900;22;20058;-95
2023/01/18 06:11:31;;;;;;;17.70;9.15;;;;;;;;;;6284268;22;20351;-94
2023/01/18 06:14:07;;;;;;;18.13;7.93;;;;;;;;;;6284492;22;19999;-94
2023/01/18 06:16:36;;;;;;;21.48;9.55;;;;;;;;;;6282594;22;20011;-95
2023/01/18 06:19:04;;;;;;;19.73;9.23;;;;;;;;;;6255445;22;20026;-95
2023/01/18 06:21:33;;;;;;;16.17;7.60;;;;;;;;;;6281650;22;20004;-95
2023/01/18 06:23:59;;;;;;;12.45;5.93;;;;;;;;;;6282042;22;20000;-95
2023/01/18 06:26:25;;;;;;;10.02;5.22;;;;;;;;;;6282254;22;20377;-95
2023/01/18 06:28:52;;;;;;;6.13;2.92;;;;;;;;;;6286040;22;20004;-94
2023/01/18 06:31:18;;;;;;;2.53;1.67;;;;;;;;;;6287295;22;20079;-96
2023/01/18 06:33:44;;;;;;;4.90;2.50;;;;;;;;;;6288190;22;20008;-95
2023/01/18 06:36:10;;;;;;;12.30;5.38;;;;;;;;;;6287184;22;19991;-95
2023/01/18 06:38:37;;;;;;;10.43;5.28;;;;;;;;;;6286961;22;20019;-96
2023/01/18 06:41:03;;;;;;;15.32;7.13;;;;;;;;;;6285323;22;20008;-95
2023/01/18 06:43:29;;;;;;;12.98;6.45;;;;;;;;;;6286129;22;20367;-95
2023/01/18 06:45:55;;;;;;;11.75;4.18;;;;;;;;;;6318847;22;20007;-96
2023/01/18 06:48:23;;;;;;;21.67;7.43;;;;;;;;;;6289189;22;20086;-94
2023/01/18 06:50:53;;;;;;;18.95;7.93;;;;;;;;;;6315369;22;20045;-96
2023/01/18 06:53:20;;;;;;;27.67;9.63;;;;;;;;;;6272823;22;20031;-94
2023/01/18 06:55:55;;;;;;;65.80;21.30;;;;;;;;;;6294939;22;20029;-96
2023/01/18 06:58:23;;;;;;;73.05;24.63;;;;;;;;;;6296258;22;20008;-95
2023/01/18 07:00:50;;;;;;;67.05;18.92;;;;;;;;;;6286903;22;20019;-95
2023/01/18 07:03:19;;;;;;;42.53;15.70;;;;;;;;;;6285346;22;20012;-96
2023/01/18 07:05:45;;;;;;;33.03;12.30;;;;;;;;;;6283904;22;20004;-95
2023/01/18 07:08:12;;;;;;;33.65;13.20;;;;;;;;;;6282750;22;20019;-96
2023/01/18 07:10:40;;;;;;;15.48;7.13;;;;;;;;;;6284028;22;20069;-95
2023/01/18 07:13:06;;;;;;;25.70;9.77;;;;;;;;;;6284063;22;20000;-95
2023/01/18 07:15:32;;;;;;;37.90;12.65;;;;;;;;;;6285311;22;20003;-96
2023/01/18 07:17:58;;;;;;;21.35;10.30;;;;;;;;;;6285583;22;20056;-95
2023/01/18 07:20:24;;;;;;;15.48;6.90;;;;;;;;;;6283621;22;20030;-95
2023/01/18 07:22:51;;;;;;;15.75;7.07;;;;;;;;;;6293914;22;20012;-96
2023/01/18 07:25:29;;;;;;;13.35;7.65;;;;;;;;;;6320533;22;20007;-95
2023/01/18 07:28:11;;;;;;;9.35;5.32;;;;;;;;;;6313280;22;20012;-96
2023/01/18 07:30:47;;;;;;;7.25;3.97;;;;;;;;;;6244622;23;20016;-96
2023/01/18 07:35:39;;;;;;;15.30;8.65;;;;;;;;;;6280418;22;20110;-95
2023/01/18 07:38:13;;;;;;;19.65;10.52;;;;;;;;;;6282990;22;20007;-94
2023/01/18 07:46:22;;;;;;;49.95;28.17;;;;;;;;;;6275720;22;20031;-96
2023/01/18 07:48:51;;;;;;;14.45;6.93;;;;;;;;;;6279237;22;20015;-95
2023/01/18 07:51:45;;;;;;;;;;;;;;;;;;;;;
2023/01/18 07:54:17;;;;;;;16.40;9.43;;;;;;;;;;6318141;22;20031;-94
2023/01/18 07:57:02;;;;;;;;;;;;;;;;;;;;;
2023/01/18 07:59:44;;;;;;;18.30;10.40;;;;;;;;;;6319393;22;20034;-94
2023/01/18 08:02:13;;;;;;;16.42;9.35;;;;;;;;;;6267665;22;20003;-94
2023/01/18 08:05:25;;;;;;;;;;;;;;;;;;;;;
2023/01/18 08:08:33;;;;;;;;;;;;;;;;;;;;;
2023/01/18 08:11:31;;;;;;;22.65;11.00;;;;;;;;;;6223307;22;20031;-94
2023/01/18 08:14:28;;;;;;;30.13;15.25;;;;;;;;;;6142145;23;20009;-94
2023/01/18 08:16:54;;;;;;;19.10;12.05;;;;;;;;;;6165405;23;20005;-93
2023/01/18 08:19:47;;;;;;;;;;;;;;;;;;;;;
2023/01/18 08:22:23;;;;;;;15.07;8.93;;;;;;;;;;6160584;23;20036;-95
2023/01/18 08:24:59;;;;;;;14.52;8.40;;;;;;;;;;6168458;23;20049;-94
2023/01/18 08:27:38;;;;;;;;;;;;;;;;;;;;;
2023/01/18 08:30:08;;;;;;;20.73;9.55;;;;;;;;;;6114826;23;20040;-91
2023/01/18 08:32:36;;;;;;;32.53;12.77;;;;;;;;;;6166374;23;20005;-95
2023/01/18 08:35:14;;;;;;;27.20;11.32;;;;;;;;;;6167216;23;20045;-93
2023/01/18 08:37:43;;;;;;;35.67;13.23;;;;;;;;;;6142042;23;20013;-94
2023/01/18 08:43:33;;;;;;;24.83;11.02;;;;;;;;;;6163561;23;20009;-94
2023/01/18 08:54:58;;;;;;;12.32;6.15;;;;;;;;;;6290933;22;20034;-93
2023/01/18 11:13:40;;;;;;;6.75;4.00;;;;;;;;;;6243690;22;20024;-92
2023/01/18 11:16:22;;;;;;;6.75;3.60;;;;;;;;;;6291023;22;20019;-92
2023/01/18 11:19:05;;;;;;;6.80;4.03;;;;;;;;;;6289718;22;20006;-91
2023/01/18 11:21:52;;;;;;;8.40;4.38;;;;;;;;;;6297965;22;19992;-94
2023/01/18 11:24:36;;;;;;;7.45;4.47;;;;;;;;;;6295124;22;20122;-94
2023/01/18 11:27:16;;;;;;;9.73;6.53;;;;;;;;;;6298932;22;20002;-94
2023/01/18 11:29:59;;;;;;;8.48;5.80;;;;;;;;;;6249245;22;19983;-94
2023/01/18 11:32:32;;;;;;;15.70;9.68;;;;;;;;;;6297977;22;20052;-95
2023/01/18 11:35:22;;;;;;;10.55;6.82;;;;;;;;;;6291080;22;19996;-94
2023/01/18 12:13:36;;;;;;;11.80;5.40;;;;;;;;;;6243590;22;20030;31
2023/01/18 12:33:35;;;;;;;8.23;4.03;;;;;;;;;;6324181;22;20037;-96
2023/01/18 12:36:43;;;;;;;14.20;8.00;;;;;;;;;;6331667;22;20423;-96
2023/01/18 12:39:25;;;;;;;7.07;4.87;;;;;;;;;;6328903;22;20026;-96
2023/01/18 12:42:10;;;;;;;15.88;10.10;;;;;;;;;;6306079;22;20030;-96
2023/01/18 12:44:55;;;;;;;18.48;10.43;;;;;;;;;;6307579;22;19987;-96
2023/01/18 12:50:04;;;;;;;35.75;25.13;;;;;;;;;;6300560;22;20043;-96
2023/01/18 12:53:35;;;;;;;;;;;;;;;;;;;;;
2023/01/18 12:59:12;;;;;;;14.35;10.43;;;;;;;;;;6215767;22;21071;-95
2023/01/18 13:02:21;;;;;;;39.70;19.67;;;;;;;;;;6203853;23;20099;-94
2023/01/18 13:04:52;;;;;;;46.42;23.55;;;;;;;;;;6195529;23;20020;-94
2023/01/18 13:07:21;;;;;;;24.67;14.52;;;;;;;;;;6196471;23;20367;-95
2023/01/18 13:09:49;;;;;;;16.52;9.00;;;;;;;;;;6220492;23;20016;-93
2023/01/18 13:12:16;;;;;;;21.23;10.57;;;;;;;;;;6219484;23;20446;-93
2023/01/18 13:15:00;;;;;;;9.55;5.35;;;;;;;;;;6221012;23;20024;-95
2023/01/18 13:17:48;;;;;;;9.23;6.00;;;;;;;;;;6221515;23;20375;-95
2023/01/18 13:20:21;;;;;;;7.40;6.65;;;;;;;;;;6233080;23;20004;-94
2023/01/18 13:22:48;;;;;;;11.55;10.00;;;;;;;;;;6222989;23;20009;-95
2023/01/18 13:25:34;;;;;;;10.95;9.50;;;;;;;;;;6222248;23;20004;-95
2023/01/18 13:28:17;;;;;;;12.90;9.57;;;;;;;;;;6224289;23;20021;-96
2023/01/18 13:30:46;;;;;;;15.43;10.07;;;;;;;;;;6224941;23;20012;-94
2023/01/18 13:33:13;;;;;;;17.83;12.30;;;;;;;;;;6228292;23;20004;-93
2023/01/18 13:36:02;;;;;;;13.85;8.15;;;;;;;;;;6220556;23;20364;-94
2023/01/18 13:38:29;;;;;;;13.02;7.10;;;;;;;;;;6222623;23;20007;-94
2023/01/18 13:41:21;;;;;;;10.82;6.28;;;;;;;;;;6222897;23;20005;-93
2023/01/18 13:43:47;;;;;;;12.52;7.65;;;;;;;;;;6224310;23;20041;-93
2023/01/18 13:46:13;;;;;;;9.43;5.72;;;;;;;;;;6226315;23;20005;-94
2023/01/18 13:48:49;;;;;;;9.57;5.60;;;;;;;;;;6224950;23;20004;-95
2023/01/18 13:51:34;;;;;;;9.50;4.72;;;;;;;;;;6227661;23;20117;-95
2023/01/18 13:54:00;;;;;;;8.65;5.43;;;;;;;;;;6226055;23;20032;-93
2023/01/18 13:56:52;;;;;;;8.90;5.82;;;;;;;;;;6226584;23;20027;-94
2023/01/18 13:59:22;;;;;;;69.45;31.38;;;;;;;;;;6252993;23;20364;-95
2023/01/18 14:01:49;;;;;;;71.63;43.20;;;;;;;;;;6227378;23;20055;-94
2023/01/18 14:04:27;;;;;;;111.57;67.55;;;;;;;;;;6226455;23;20023;-93
2023/01/18 14:06:57;;;;;;;408.33;260.80;;;;;;;;;;6230062;23;20012;-95
2023/01/18 14:09:51;;;;;;;;;;;;;;;;;;;;;
2023/01/18 14:12:40;;;;;;;214.80;123.05;;;;;;;;;;6228752;23;20020;-94
2023/01/18 14:15:22;;;;;;;88.55;35.05;;;;;;;;;;6224712;23;20000;-95
2023/01/18 14:17:48;;;;;;;139.98;59.30;;;;;;;;;;6228645;23;20008;-94
2023/01/18 14:20:24;;;;;;;223.55;135.50;;;;;;;;;;6224870;23;20019;-94
2023/01/18 14:23:03;;;;;;;127.78;76.80;;;;;;;;;;6221336;23;20079;-94
2023/01/18 14:25:39;;;;;;;38.88;23.60;;;;;;;;;;6222768;23;20015;-92
2023/01/18 14:28:20;;;;;;;22.27;14.43;;;;;;;;;;6223795;23;20005;-93
2023/01/18 14:30:47;;;;;;;33.22;14.13;;;;;;;;;;6221930;23;20013;-90
2023/01/18 14:33:19;;;;;;;46.65;19.88;;;;;;;;;;6224477;23;20001;-95
2023/01/18 14:35:45;;;;;;;;;;;;;;;;;;6226475;23;20356;-90
2023/01/18 14:38:13;;;;;;;43.42;22.98;;;;;;;;;;6221521;23;20145;-95
2023/01/18 14:40:42;;;;;;;41.30;22.25;;;;;;;;;;6222131;23;20032;-94
2023/01/18 14:43:25;;;;;;;38.83;22.00;;;;;;;;;;6224263;23;20000;-93
2023/01/18 14:46:03;;;;;;;38.90;23.17;;;;;;;;;;6222618;23;20382;-95
2023/01/18 14:48:31;;;;;;;52.92;32.03;;;;;;;;;;6223248;23;19996;-92
2023/01/18 14:54:03;;;;;;;53.88;27.50;;;;;;;;;;6222294;23;20079;-93
2023/01/18 14:56:33;;;;;;;44.53;19.77;;;;;;;;;;6221382;23;19997;-93
2023/01/18 14:59:17;;;;;;;30.23;14.60;;;;;;;;;;6221317;23;20307;-95
2023/01/18 15:01:50;;;;;;;22.92;10.77;;;;;;;;;;6221720;23;20017;-94
2023/01/18 15:04:28;;;;;;;56.95;24.50;;;;;;;;;;6220042;23;20005;-93
2023/01/18 15:07:33;;;;;;;33.53;14.98;;;;;;;;;;6221184;23;20376;-94
2023/01/18 15:10:00;;;;;;;97.78;43.40;;;;;;;;;;6220790;23;20080;-94
2023/01/18 15:12:30;;;;;;;35.45;16.88;;;;;;;;;;6222338;23;20012;-93
2023/01/18 15:15:05;;;;;;;28.35;14.68;;;;;;;;;;6222250;23;20001;-94
2023/01/18 15:17:34;;;;;;;25.92;13.23;;;;;;;;;;6222221;23;20027;-93
2023/01/18 15:20:17;;;;;;;;;;;;;;;;;;;;;
2023/01/18 15:22:51;;;;;;;26.48;14.55;;;;;;;;;;6169793;23;20083;-94
2023/01/18 15:25:31;;;;;;;19.27;10.68;;;;;;;;;;6221715;23;20001;-92
2023/01/18 15:27:58;;;;;;;44.25;25.48;;;;;;;;;;6223151;23;20005;-93
2023/01/18 15:30:47;;;;;;;36.67;19.75;;;;;;;;;;6222735;23;20032;-96
2023/01/18 15:33:41;;;;;;;23.65;13.20;;;;;;;;;;6226234;23;20012;-93
2023/01/18 15:36:32;;;;;;;;;;;;;;;;;;;;;
2023/01/18 15:38:59;;;;;;;73.15;41.60;;;;;;;;;;6218249;23;20079;-93
2023/01/18 15:41:56;;;;;;;;;;;;;;;;;;;;;
2023/01/18 15:44:52;;;;;;;;;;;;;;;;;;;;;
2023/01/18 15:47:48;;;;;;;;;;;;;;;;;;;;;
2023/01/18 15:50:20;;;;;;;141.18;76.35;;;;;;;;;;6153923;23;20050;-94
2023/01/18 15:56:30;;;;;;;;;;;;;;;;;;;;;
2023/01/18 16:11:46;;;;;;;51.10;29.17;;;;;;;;;;5905456;24;20404;-94
2023/01/18 16:22:56;;;;;;;84.60;46.47;;;;;;;;;;5796522;24;20384;-94
2023/01/18 16:25:43;;;;;;;;;;;;;;;;;;;;;
2023/01/18 16:28:32;;;;;;;64.75;38.58;;;;;;;;;;5824757;24;20063;-94
2023/01/18 16:34:26;;;;;;;30.65;16.17;;;;;;;;;;5822965;24;20007;-95
2023/01/18 16:37:28;;;;;;;30.10;17.08;;;;;;;;;;5797646;24;20334;-94
2023/01/18 16:40:16;;;;;;;25.30;13.02;;;;;;;;;;5815985;24;20014;-94
2023/01/18 16:43:01;;;;;;;35.00;17.98;;;;;;;;;;5856172;24;20025;-94
2023/01/18 16:45:49;;;;;;;;;;;;;;;;;;;;;
2023/01/18 16:48:44;;;;;;;20.20;9.20;;;;;;;;;;5872544;24;20073;-94
2023/01/18 16:51:46;;;;;;;;;;;;;;;;;;;;;
2023/01/18 17:02:00;;;;;;;28.80;13.30;;;;;;;;;;6273515;22;20397;-87
2023/01/18 17:04:26;;;;;;;31.58;13.60;;;;;;;;;;6281830;22;20003;-86
2023/01/18 17:06:52;;;;;;;42.85;17.10;;;;;;;;;;6254953;22;20082;-87
2023/01/18 17:09:19;;;;;;;30.25;14.50;;;;;;;;;;6282447;22;20007;-89
2023/01/18 17:11:46;;;;;;;36.92;16.27;;;;;;;;;;6255039;22;20003;-92
2023/01/18 17:14:12;;;;;;;37.53;15.90;;;;;;;;;;6281823;22;19999;-89
2023/01/18 17:16:39;;;;;;;68.60;34.20;;;;;;;;;;6281778;22;20007;-91
2023/01/18 17:19:09;;;;;;;50.55;25.17;;;;;;;;;;6281392;22;20003;-87
2023/01/18 17:21:35;;;;;;;24.13;10.25;;;;;;;;;;6281901;22;20007;-90
2023/01/18 17:24:01;;;;;;;70.90;35.95;;;;;;;;;;6254958;22;20004;-89
2023/01/18 17:26:27;;;;;;;21.05;10.75;;;;;;;;;;6281968;22;20008;-88
2023/01/18 17:28:53;;;;;;;18.83;9.45;;;;;;;;;;6282507;22;20384;-89
2023/01/18 17:31:20;;;;;;;23.15;9.60;;;;;;;;;;6281749;22;20008;-89
2023/01/18 17:33:46;;;;;;;27.15;12.07;;;;;;;;;;6282071;22;20008;-89
2023/01/18 17:36:12;;;;;;;20.10;10.15;;;;;;;;;;6281880;22;19992;-89
2023/01/18 17:38:38;;;;;;;22.25;11.38;;;;;;;;;;6282330;22;20011;-88
2023/01/18 17:41:05;;;;;;;27.88;12.20;;;;;;;;;;6255034;22;20011;-89
2023/01/18 17:43:32;;;;;;;31.02;13.52;;;;;;;;;;6255181;22;20008;-89
2023/01/18 17:45:59;;;;;;;29.40;12.98;;;;;;;;;;6254905;22;20331;-89
2023/01/18 17:48:27;;;;;;;30.83;14.18;;;;;;;;;;6281192;22;20027;-93
2023/01/18 17:53:59;;;;;;;30.02;13.63;;;;;;;;;;6281735;22;20010;-89
2023/01/18 17:56:25;;;;;;;30.83;14.18;;;;;;;;;;6256056;22;20023;-93
2023/01/18 17:58:53;;;;;;;32.72;15.10;;;;;;;;;;6282411;22;20004;-80
2023/01/18 18:01:19;;;;;;;17.80;9.05;;;;;;;;;;6281182;22;20383;-91
2023/01/18 18:03:46;;;;;;;19.80;9.25;;;;;;;;;;6282022;22;20069;-91
2023/01/18 18:06:13;;;;;;;26.15;11.52;;;;;;;;;;6282029;22;20004;-92
2023/01/18 18:08:39;;;;;;;26.05;11.73;;;;;;;;;;6280652;22;20050;-93
2023/01/18 18:11:09;;;;;;;19.73;11.55;;;;;;;;;;6280768;22;20002;-91
2023/01/18 18:13:36;;;;;;;19.00;10.57;;;;;;;;;;6280894;22;20088;-91
2023/01/18 18:16:03;;;;;;;15.32;9.65;;;;;;;;;;6281594;22;20004;-91
2023/01/18 18:18:29;;;;;;;14.18;8.80;;;;;;;;;;6281621;22;20011;-92
2023/01/18 18:20:59;;;;;;;15.60;8.88;;;;;;;;;;6281616;22;20496;-90
2023/01/18 18:23:25;;;;;;;12.07;7.68;;;;;;;;;;6283203;22;20083;-91
2023/01/18 18:25:52;;;;;;;21.10;10.95;;;;;;;;;;6283664;22;20382;-92
2023/01/18 18:28:18;;;;;;;22.05;11.55;;;;;;;;;;6282604;22;20011;-92
2023/01/18 18:30:47;;;;;;;22.98;11.60;;;;;;;;;;6282536;22;19999;-91
2023/01/18 18:33:14;;;;;;;23.77;13.10;;;;;;;;;;6283500;22;20003;-92
2023/01/18 18:35:40;;;;;;;32.85;15.38;;;;;;;;;;6282801;22;20023;-92
2023/01/18 18:38:07;;;;;;;31.98;16.52;;;;;;;;;;6283376;22;20004;-92
2023/01/18 18:40:33;;;;;;;47.85;21.00;;;;;;;;;;6283494;22;20294;-93
2023/01/18 18:42:59;;;;;;;38.25;12.68;;;;;;;;;;6283698;22;20011;-94
2023/01/18 18:45:25;;;;;;;55.90;11.55;;;;;;;;;;6283735;22;20310;-92
2023/01/18 18:47:51;;;;;;;70.07;13.52;;;;;;;;;;6282034;22;20007;-93
2023/01/18 18:50:17;;;;;;;39.67;13.27;;;;;;;;;;6282070;22;20038;-92
2023/01/18 18:52:44;;;;;;;41.78;13.57;;;;;;;;;;6283459;22;20007;-93
2023/01/18 18:55:10;;;;;;;50.05;14.75;;;;;;;;;;6283861;22;20263;-92
2023/01/18 18:57:36;;;;;;;25.58;9.80;;;;;;;;;;6283301;22;19999;-93
2023/01/18 19:00:06;;;;;;;26.90;11.70;;;;;;;;;;6282078;22;20232;-94
2023/01/18 19:02:32;;;;;;;55.63;22.25;;;;;;;;;;6282987;22;20020;-94
2023/01/18 19:04:58;;;;;;;58.83;25.95;;;;;;;;;;6282254;22;20008;-93
2023/01/18 19:07:24;;;;;;;60.75;23.25;;;;;;;;;;6282012;22;20025;-94
2023/01/18 19:09:51;;;;;;;58.53;23.50;;;;;;;;;;6282246;22;19999;-94
2023/01/18 19:12:17;;;;;;;77.00;29.02;;;;;;;;;;6282896;22;20027;-94
2023/01/18 19:14:43;;;;;;;57.67;23.58;;;;;;;;;;6282908;22;20289;-94
2023/01/18 19:17:09;;;;;;;51.08;19.77;;;;;;;;;;6283384;22;20307;-92
2023/01/18 19:19:35;;;;;;;41.83;18.20;;;;;;;;;;6283554;22;20071;-93
2023/01/18 19:22:01;;;;;;;51.20;21.33;;;;;;;;;;6283135;22;19996;-94
2023/01/18 19:24:33;;;;;;;60.20;30.38;;;;;;;;;;6281583;22;20054;-94
2023/01/18 19:26:59;;;;;;;37.28;19.23;;;;;;;;;;6283380;22;20007;-94
2023/01/18 19:29:25;;;;;;;35.28;17.05;;;;;;;;;;6281595;22;20069;-93
2023/01/18 19:31:51;;;;;;;29.38;13.82;;;;;;;;;;6281872;22;20003;-94
2023/01/18 19:34:20;;;;;;;19.25;11.38;;;;;;;;;;6282730;22;19996;-94
2023/01/18 19:36:46;;;;;;;41.60;17.35;;;;;;;;;;6281485;22;19999;-95
2023/01/18 19:39:12;;;;;;;50.30;19.13;;;;;;;;;;6283332;22;20261;-95
2023/01/18 19:41:38;;;;;;;24.27;10.75;;;;;;;;;;6281704;22;20008;-95
2023/01/18 19:44:05;;;;;;;13.27;7.25;;;;;;;;;;6281716;22;20011;-93
2023/01/18 19:46:32;;;;;;;24.73;11.27;;;;;;;;;;6283126;22;20063;-94
2023/01/18 19:48:59;;;;;;;21.58;7.50;;;;;;;;;;6283102;22;20011;-95
2023/01/18 19:51:26;;;;;;;26.52;12.13;;;;;;;;;;6282503;22;20000;-95
2023/01/18 19:53:53;;;;;;;39.53;14.48;;;;;;;;;;6282599;22;20007;-95
2023/01/18 19:56:19;;;;;;;37.95;13.55;;;;;;;;;;6281741;22;20004;-94
2023/01/18 19:58:49;;;;;;;35.75;13.60;;;;;;;;;;6284283;22;20022;-85
2023/01/18 20:01:16;;;;;;;35.17;10.02;;;;;;;;;;6282406;22;20275;-94
2023/01/18 20:03:42;;;;;;;52.97;10.63;;;;;;;;;;6282915;22;20008;-94
2023/01/18 20:06:14;;;;;;;50.65;15.90;;;;;;;;;;6283545;22;20004;-95
2023/01/18 20:08:40;;;;;;;23.15;11.32;;;;;;;;;;6283602;22;19999;-95
2023/01/18 20:11:08;;;;;;;22.30;10.23;;;;;;;;;;6281567;22;20003;-95
2023/01/18 20:13:35;;;;;;;21.92;9.18;;;;;;;;;;6282825;22;19999;-95
2023/01/18 20:16:01;;;;;;;37.97;11.52;;;;;;;;;;6282512;22;20000;-95
2023/01/18 20:18:31;;;;;;;35.72;8.80;;;;;;;;;;6285072;22;20008;-95
2023/01/18 20:20:57;;;;;;;49.00;11.32;;;;;;;;;;6282985;22;20007;-95
2023/01/18 20:23:23;;;;;;;38.35;8.00;;;;;;;;;;6281911;22;20000;-88
2023/01/18 20:25:58;;;;;;;49.88;8.23;;;;;;;;;;6285659;22;20004;-95
2023/01/18 20:28:24;;;;;;;41.25;7.10;;;;;;;;;;6284393;22;20106;-94
2023/01/18 20:31:04;;;;;;;;;;;;;;;;;;;;;
2023/01/18 20:36:58;;;;;;;;;;;;;;;;;;;;;
2023/01/18 20:51:16;;;;;;;12.60;4.60;;;;;;;;;;6271997;22;20065;-96
2023/01/18 20:53:45;;;;;;;18.90;5.63;;;;;;;;;;6257324;22;20398;-95
2023/01/18 20:56:13;;;;;;;10.55;5.70;;;;;;;;;;6282956;22;20004;-96
2023/01/18 20:58:53;;;;;;;10.00;4.95;;;;;;;;;;6284584;22;20003;-95
2023/01/18 21:01:40;;;;;;;11.40;5.03;;;;;;;;;;6257517;22;19995;-96
2023/01/18 21:10:37;;;;;;;14.90;5.90;;;;;;;;;;6159128;23;20014;-92
2023/01/18 21:13:03;;;;;;;19.55;6.95;;;;;;;;;;6157761;23;20037;-96
2023/01/18 21:15:29;;;;;;;14.52;6.72;;;;;;;;;;6134690;23;20006;-96
2023/01/18 21:17:55;;;;;;;29.42;11.43;;;;;;;;;;6134699;23;20051;-95
2023/01/18 21:20:24;;;;;;;25.27;9.70;;;;;;;;;;6135503;23;20010;-96
2023/01/18 21:22:53;;;;;;;21.45;6.90;;;;;;;;;;6139712;23;20025;-96
2023/01/18 21:25:22;;;;;;;13.88;6.15;;;;;;;;;;6190974;23;20013;-96
2023/01/18 22:19:30;;;;;;;33.13;14.27;;;;;;;;;;6312006;22;20068;-95
2023/01/18 22:31:54;;;;;;;24.17;10.73;;;;;;;;;;6311952;22;20004;-94
2023/01/18 22:34:20;;;;;;;19.10;10.23;;;;;;;;;;6312465;22;20003;-92
2023/01/18 22:36:49;;;;;;;15.82;8.25;;;;;;;;;;6286432;22;19999;-94
2023/01/18 22:39:16;;;;;;;19.77;7.80;;;;;;;;;;6312645;22;20283;-93
2023/01/18 22:41:42;;;;;;;11.52;6.63;;;;;;;;;;6312517;22;20121;-93
2023/01/18 22:44:08;;;;;;;13.52;6.55;;;;;;;;;;6312312;22;20314;-93
2023/01/18 22:46:34;;;;;;;12.98;6.60;;;;;;;;;;6311997;22;20057;-94
2023/01/18 22:49:00;;;;;;;12.10;5.35;;;;;;;;;;6311944;22;20329;-93
2023/01/18 22:51:26;;;;;;;10.27;4.72;;;;;;;;;;6312165;22;20014;-94
2023/01/18 22:53:54;;;;;;;12.05;5.18;;;;;;;;;;6312255;22;20004;-93
2023/01/18 22:56:22;;;;;;;10.38;4.80;;;;;;;;;;6285450;22;20054;-93
2023/01/18 22:58:48;;;;;;;8.88;4.47;;;;;;;;;;6311922;22;20366;-93
2023/01/18 23:01:16;;;;;;;15.48;5.90;;;;;;;;;;6286412;22;20003;-93
2023/01/18 23:03:43;;;;;;;9.77;4.68;;;;;;;;;;6312249;22;20374;-94
2023/01/18 23:06:13;;;;;;;9.85;4.82;;;;;;;;;;6298930;22;20433;-94
2023/01/18 23:08:42;;;;;;;8.85;3.90;;;;;;;;;;6377121;22;20002;-95
